Jiuxian Shan, China
Current Conditions -  °F | °C
As of 1:00 PM on Monday 22 Dec 2014 (Local Time) from ZSAM Reporting Station
Clear Clear  
Wind Chill: 59°   Ceiling: Unl
Heat Index: 59°   Visibility: 6mi
Dew Point: 36°   Wind: 11mph
Humidity: 42%   Direction: 40°NE
Pressure: 30.27"   Gusts: NA
Location:  25.72°N, 118.1°E
Report Text: ZSAM 220500Z 04005MPS 360V090 CAVOK 15/02 Q1025 NOSIG
Loading
Personal Weather Stations






























Interactive Weather Map New forecast layout! Learn more

10-Day Weather Forecast

Advertisements
Track Severe Weather on mobile